sensor_id;sensor_type;location;lat;lon;timestamp;temperature;humidity
21805;DHT22;11064;47.102;15.452;2023-11-19T06:02:49;1.70;99.90
21805;DHT22;11064;47.102;15.452;2023-11-19T06:05:15;1.80;99.90
21805;DHT22;11064;47.102;15.452;2023-11-19T06:07:41;1.90;99.90
21805;DHT22;11064;47.102;15.452;2023-11-19T06:10:07;2.00;99.90
21805;DHT22;11064;47.102;15.452;2023-11-19T06:12:35;2.10;99.90
21805;DHT22;11064;47.102;15.452;2023-11-19T06:15:05;2.10;99.90
21805;DHT22;11064;47.102;15.452;2023-11-19T06:17:31;2.00;99.90
21805;DHT22;11064;47.102;15.452;2023-11-19T06:19:57;2.00;99.90
21805;DHT22;11064;47.102;15.452;2023-11-19T06:22:23;2.10;99.90
21805;DHT22;11064;47.102;15.452;2023-11-19T06:24:49;2.10;99.90
21805;DHT22;11064;47.102;15.452;2023-11-19T06:27:15;2.20;99.90
21805;DHT22;11064;47.102;15.452;2023-11-19T06:29:41;2.20;99.90
21805;DHT22;11064;47.102;15.452;2023-11-19T06:32:07;2.30;99.90
21805;DHT22;11064;47.102;15.452;2023-11-19T06:34:34;2.40;99.90
21805;DHT22;11064;47.102;15.452;2023-11-19T06:37:00;2.40;99.90
21805;DHT22;11064;47.102;15.452;2023-11-19T06:39:25;2.50;99.90
21805;DHT22;11064;47.102;15.452;2023-11-19T06:41:52;2.60;99.90
21805;DHT22;11064;47.102;15.452;2023-11-19T06:44:17;2.60;99.90
21805;DHT22;11064;47.102;15.452;2023-11-19T06:46:43;2.70;99.90
21805;DHT22;11064;47.102;15.452;2023-11-19T06:49:09;2.80;99.90
21805;DHT22;11064;47.102;15.452;2023-11-19T06:51:35;2.70;99.90
21805;DHT22;11064;47.102;15.452;2023-11-19T06:54:01;2.60;99.90
21805;DHT22;11064;47.102;15.452;2023-11-19T06:56:27;2.60;99.90
21805;DHT22;11064;47.102;15.452;2023-11-19T06:58:53;2.60;99.90
21805;DHT22;11064;47.102;15.452;2023-11-19T07:01:20;2.60;99.90
21805;DHT22;11064;47.102;15.452;2023-11-19T07:03:46;2.60;99.90
21805;DHT22;11064;47.102;15.452;2023-11-19T07:06:15;2.60;99.90
21805;DHT22;11064;47.102;15.452;2023-11-19T07:08:41;2.70;99.90
21805;DHT22;11064;47.102;15.452;2023-11-19T07:11:11;2.80;99.90
21805;DHT22;11064;47.102;15.452;2023-11-19T07:13:37;2.80;99.90
21805;DHT22;11064;47.102;15.452;2023-11-19T07:16:03;2.80;99.90
21805;DHT22;11064;47.102;15.452;2023-11-19T07:18:29;2.80;99.90
21805;DHT22;11064;47.102;15.452;2023-11-19T07:20:56;2.70;99.90
21805;DHT22;11064;47.102;15.452;2023-11-19T07:23:22;2.70;99.90
21805;DHT22;11064;47.102;15.452;2023-11-19T07:25:48;2.70;99.90
21805;DHT22;11064;47.102;15.452;2023-11-19T07:28:16;2.70;99.90
21805;DHT22;11064;47.102;15.452;2023-11-19T07:30:42;2.70;99.90
21805;DHT22;11064;47.102;15.452;2023-11-19T07:33:08;2.70;99.90
21805;DHT22;11064;47.102;15.452;2023-11-19T07:35:34;2.90;99.90
21805;DHT22;11064;47.102;15.452;2023-11-19T07:38:00;3.00;99.90
21805;DHT22;11064;47.102;15.452;2023-11-19T07:40:25;3.20;99.90
21805;DHT22;11064;47.102;15.452;2023-11-19T07:42:51;3.40;99.90
21805;DHT22;11064;47.102;15.452;2023-11-19T07:45:17;3.50;99.90
21805;DHT22;11064;47.102;15.452;2023-11-19T07:47:44;3.60;99.90
21805;DHT22;11064;47.102;15.452;2023-11-19T07:50:12;3.40;99.90
21805;DHT22;11064;47.102;15.452;2023-11-19T07:52:42;3.40;99.90
21805;DHT22;11064;47.102;15.452;2023-11-19T07:55:08;3.30;99.90
21805;DHT22;11064;47.102;15.452;2023-11-19T07:57:34;3.10;99.90
21805;DHT22;11064;47.102;15.452;2023-11-19T08:00:01;3.20;99.90
21805;DHT22;11064;47.102;15.452;2023-11-19T08:02:28;3.10;99.90
21805;DHT22;11064;47.102;15.452;2023-11-19T08:04:54;3.00;99.90
21805;DHT22;11064;47.102;15.452;2023-11-19T08:07:21;3.00;99.90
21805;DHT22;11064;47.102;15.452;2023-11-19T08:09:51;2.90;99.90
21805;DHT22;11064;47.102;15.452;2023-11-19T08:12:17;2.90;99.90
21805;DHT22;11064;47.102;15.452;2023-11-19T08:14:43;2.90;99.90
21805;DHT22;11064;47.102;15.452;2023-11-19T08:17:09;2.90;99.90
21805;DHT22;11064;47.102;15.452;2023-11-19T08:19:35;3.00;99.90
21805;DHT22;11064;47.102;15.452;2023-11-19T08:22:03;3.10;99.90
21805;DHT22;11064;47.102;15.452;2023-11-19T08:24:29;3.30;99.90
21805;DHT22;11064;47.102;15.452;2023-11-19T08:26:54;3.50;99.90
21805;DHT22;11064;47.102;15.452;2023-11-19T08:29:20;3.70;99.90
21805;DHT22;11064;47.102;15.452;2023-11-19T08:31:46;3.90;99.90
21805;DHT22;11064;47.102;15.452;2023-11-19T08:34:12;4.00;99.90
21805;DHT22;11064;47.102;15.452;2023-11-19T08:36:38;4.10;99.90
21805;DHT22;11064;47.102;15.452;2023-11-19T08:39:04;4.20;99.90
21805;DHT22;11064;47.102;15.452;2023-11-19T08:41:30;4.10;99.90
21805;DHT22;11064;47.102;15.452;2023-11-19T08:43:56;4.20;99.90
21805;DHT22;11064;47.102;15.452;2023-11-19T08:46:22;4.10;99.90
21805;DHT22;11064;47.102;15.452;2023-11-19T08:48:48;4.20;99.90
21805;DHT22;11064;47.102;15.452;2023-11-19T08:51:14;4.30;99.90
21805;DHT22;11064;47.102;15.452;2023-11-19T08:53:39;4.20;99.90
21805;DHT22;11064;47.102;15.452;2023-11-19T08:56:06;4.30;99.90
21805;DHT22;11064;47.102;15.452;2023-11-19T08:58:31;4.40;99.90
21805;DHT22;11064;47.102;15.452;2023-11-19T09:00:58;4.50;99.90
21805;DHT22;11064;47.102;15.452;2023-11-19T09:03:24;4.40;99.90
21805;DHT22;11064;47.102;15.452;2023-11-19T09:05:52;4.60;99.90
21805;DHT22;11064;47.102;15.452;2023-11-19T09:08:18;4.80;99.90
21805;DHT22;11064;47.102;15.452;2023-11-19T09:10:44;5.10;99.90
21805;DHT22;11064;47.102;15.452;2023-11-19T09:13:09;5.60;99.90
21805;DHT22;11064;47.102;15.452;2023-11-19T09:15:35;5.90;99.90
21805;DHT22;11064;47.102;15.452;2023-11-19T09:18:01;5.90;99.90
21805;DHT22;11064;47.102;15.452;2023-11-19T09:20:26;5.80;99.90
21805;DHT22;11064;47.102;15.452;2023-11-19T09:22:52;5.80;99.90
21805;DHT22;11064;47.102;15.452;2023-11-19T09:25:20;5.70;99.90
21805;DHT22;11064;47.102;15.452;2023-11-19T09:27:47;5.80;99.90
21805;DHT22;11064;47.102;15.452;2023-11-19T09:30:13;5.80;99.90
21805;DHT22;11064;47.102;15.452;2023-11-19T09:32:41;5.60;99.90
21805;DHT22;11064;47.102;15.452;2023-11-19T09:35:07;5.30;99.90
21805;DHT22;11064;47.102;15.452;2023-11-19T09:37:33;5.20;99.90
21805;DHT22;11064;47.102;15.452;2023-11-19T09:39:59;5.40;99.90
21805;DHT22;11064;47.102;15.452;2023-11-19T09:42:24;5.60;99.90
21805;DHT22;11064;47.102;15.452;2023-11-19T09:44:55;5.60;99.90
21805;DHT22;11064;47.102;15.452;2023-11-19T09:47:22;5.70;99.90
21805;DHT22;11064;47.102;15.452;2023-11-19T09:49:49;5.80;99.90
21805;DHT22;11064;47.102;15.452;2023-11-19T09:52:17;5.90;99.90
21805;DHT22;11064;47.102;15.452;2023-11-19T09:54:43;6.00;99.90
21805;DHT22;11064;47.102;15.452;2023-11-19T09:57:13;6.20;99.90
21805;DHT22;11064;47.102;15.452;2023-11-19T09:59:41;6.20;99.90
21805;DHT22;11064;47.102;15.452;2023-11-19T10:02:09;6.30;99.90
21805;DHT22;11064;47.102;15.452;2023-11-19T10:04:35;6.50;99.90
21805;DHT22;11064;47.102;15.452;2023-11-19T10:07:03;6.70;99.90
21805;DHT22;11064;47.102;15.452;2023-11-19T10:09:30;6.60;99.90
21805;DHT22;11064;47.102;15.452;2023-11-19T10:11:56;6.50;99.90
21805;DHT22;11064;47.102;15.452;2023-11-19T10:14:23;6.50;99.90
21805;DHT22;11064;47.102;15.452;2023-11-19T10:16:49;6.60;99.90
21805;DHT22;11064;47.102;15.452;2023-11-19T10:19:21;6.40;99.90
21805;DHT22;11064;47.102;15.452;2023-11-19T10:21:47;6.60;99.90
21805;DHT22;11064;47.102;15.452;2023-11-19T10:24:14;6.60;99.90
21805;DHT22;11064;47.102;15.452;2023-11-19T10:26:40;7.00;99.90
21805;DHT22;11064;47.102;15.452;2023-11-19T10:29:08;7.00;99.90
21805;DHT22;11064;47.102;15.452;2023-11-19T10:31:38;7.00;99.90
21805;DHT22;11064;47.102;15.452;2023-11-19T10:34:04;7.10;99.90
21805;DHT22;11064;47.102;15.452;2023-11-19T10:36:39;7.10;99.90
21805;DHT22;11064;47.102;15.452;2023-11-19T10:39:10;6.90;99.90
21805;DHT22;11064;47.102;15.452;2023-11-19T10:41:36;6.90;99.90
21805;DHT22;11064;47.102;15.452;2023-11-19T10:44:02;7.00;99.90
21805;DHT22;11064;47.102;15.452;2023-11-19T10:46:39;7.20;99.90
21805;DHT22;11064;47.102;15.452;2023-11-19T10:49:09;7.30;99.90
21805;DHT22;11064;47.102;15.452;2023-11-19T10:51:36;7.30;99.90
21805;DHT22;11064;47.102;15.452;2023-11-19T10:54:03;7.30;99.90
21805;DHT22;11064;47.102;15.452;2023-11-19T10:56:33;7.30;99.90
21805;DHT22;11064;47.102;15.452;2023-11-19T10:59:01;7.30;99.90
21805;DHT22;11064;47.102;15.452;2023-11-19T11:01:39;7.40;99.90
21805;DHT22;11064;47.102;15.452;2023-11-19T11:04:14;7.40;99.90
21805;DHT22;11064;47.102;15.452;2023-11-19T11:06:43;7.30;99.90
21805;DHT22;11064;47.102;15.452;2023-11-19T11:09:10;7.30;99.90
21805;DHT22;11064;47.102;15.452;2023-11-19T11:11:40;7.30;99.90
21805;DHT22;11064;47.102;15.452;2023-11-19T11:14:12;7.40;99.90
21805;DHT22;11064;47.102;15.452;2023-11-19T11:16:42;7.50;99.90
21805;DHT22;11064;47.102;15.452;2023-11-19T11:19:10;7.40;99.90
21805;DHT22;11064;47.102;15.452;2023-11-19T11:21:37;7.30;99.90
21805;DHT22;11064;47.102;15.452;2023-11-19T11:29:53;7.30;99.90
21805;DHT22;11064;47.102;15.452;2023-11-19T11:32:51;7.40;99.90
21805;DHT22;11064;47.102;15.452;2023-11-19T11:38:10;7.40;99.90
21805;DHT22;11064;47.102;15.452;2023-11-19T11:40:36;7.40;99.90
21805;DHT22;11064;47.102;15.452;2023-11-19T11:43:03;7.40;99.90
21805;DHT22;11064;47.102;15.452;2023-11-19T11:45:40;7.40;99.90
21805;DHT22;11064;47.102;15.452;2023-11-19T11:48:15;7.30;99.90
21805;DHT22;11064;47.102;15.452;2023-11-19T11:50:53;7.30;99.90
21805;DHT22;11064;47.102;15.452;2023-11-19T11:53:20;7.40;99.90
21805;DHT22;11064;47.102;15.452;2023-11-19T11:58:22;7.40;99.90
21805;DHT22;11064;47.102;15.452;2023-11-19T12:00:51;7.50;99.90
21805;DHT22;11064;47.102;15.452;2023-11-19T12:03:20;7.50;99.90
21805;DHT22;11064;47.102;15.452;2023-11-19T12:05:49;7.60;99.90
21805;DHT22;11064;47.102;15.452;2023-11-19T12:08:19;7.60;99.90
21805;DHT22;11064;47.102;15.452;2023-11-19T12:10:50;7.70;99.90
21805;DHT22;11064;47.102;15.452;2023-11-19T12:13:17;7.70;99.90
21805;DHT22;11064;47.102;15.452;2023-11-19T12:18:27;7.80;99.90
21805;DHT22;11064;47.102;15.452;2023-11-19T12:20:53;7.80;99.90
21805;DHT22;11064;47.102;15.452;2023-11-19T12:23:19;7.90;99.90
21805;DHT22;11064;47.102;15.452;2023-11-19T12:25:44;7.80;99.90
21805;DHT22;11064;47.102;15.452;2023-11-19T12:28:13;7.90;99.90
21805;DHT22;11064;47.102;15.452;2023-11-19T12:30:40;8.00;99.90
21805;DHT22;11064;47.102;15.452;2023-11-19T12:33:08;8.00;99.90
21805;DHT22;11064;47.102;15.452;2023-11-19T12:35:44;8.00;99.90
21805;DHT22;11064;47.102;15.452;2023-11-19T12:38:24;8.00;99.90
21805;DHT22;11064;47.102;15.452;2023-11-19T12:41:10;8.10;99.90
21805;DHT22;11064;47.102;15.452;2023-11-19T12:43:37;8.10;99.90
21805;DHT22;11064;47.102;15.452;2023-11-19T12:46:19;8.10;99.90
21805;DHT22;11064;47.102;15.452;2023-11-19T12:48:47;8.20;99.90
21805;DHT22;11064;47.102;15.452;2023-11-19T12:51:12;8.20;99.90
21805;DHT22;11064;47.102;15.452;2023-11-19T12:53:49;8.20;99.90
21805;DHT22;11064;47.102;15.452;2023-11-19T12:56:16;8.20;99.90
21805;DHT22;11064;47.102;15.452;2023-11-19T12:58:42;8.10;99.90
21805;DHT22;11064;47.102;15.452;2023-11-19T13:01:09;8.00;99.90
21805;DHT22;11064;47.102;15.452;2023-11-19T13:03:38;8.00;99.90
21805;DHT22;11064;47.102;15.452;2023-11-19T13:06:08;8.00;99.90
21805;DHT22;11064;47.102;15.452;2023-11-19T13:08:44;7.90;99.90
21805;DHT22;11064;47.102;15.452;2023-11-19T13:11:12;7.90;99.90
21805;DHT22;11064;47.102;15.452;2023-11-19T13:14:01;7.80;99.90
21805;DHT22;11064;47.102;15.452;2023-11-19T13:16:31;7.80;99.90
21805;DHT22;11064;47.102;15.452;2023-11-19T13:18:58;7.80;99.90
21805;DHT22;11064;47.102;15.452;2023-11-19T13:21:25;7.70;99.90
21805;DHT22;11064;47.102;15.452;2023-11-19T13:23:51;7.70;99.90
21805;DHT22;11064;47.102;15.452;2023-11-19T13:26:16;7.80;99.90
21805;DHT22;11064;47.102;15.452;2023-11-19T13:28:42;7.70;99.90
21805;DHT22;11064;47.102;15.452;2023-11-19T13:31:08;7.70;99.90
21805;DHT22;11064;47.102;15.452;2023-11-19T13:33:36;7.60;99.90
21805;DHT22;11064;47.102;15.452;2023-11-19T13:36:02;7.60;99.90
21805;DHT22;11064;47.102;15.452;2023-11-19T13:38:34;7.60;99.90
21805;DHT22;11064;47.102;15.452;2023-11-19T13:41:03;7.60;99.90
21805;DHT22;11064;47.102;15.452;2023-11-19T13:43:34;7.50;99.90
21805;DHT22;11064;47.102;15.452;2023-11-19T13:46:00;7.50;99.90
21805;DHT22;11064;47.102;15.452;2023-11-19T13:48:26;7.50;99.90
21805;DHT22;11064;47.102;15.452;2023-11-19T13:50:57;7.40;99.90
21805;DHT22;11064;47.102;15.452;2023-11-19T13:53:23;7.40;99.90
21805;DHT22;11064;47.102;15.452;2023-11-19T13:55:49;7.40;99.90
21805;DHT22;11064;47.102;15.452;2023-11-19T13:58:15;7.30;99.90
21805;DHT22;11064;47.102;15.452;2023-11-19T14:00:42;7.30;99.90
21805;DHT22;11064;47.102;15.452;2023-11-19T14:03:09;7.40;99.90
21805;DHT22;11064;47.102;15.452;2023-11-19T14:05:41;7.40;99.90
21805;DHT22;11064;47.102;15.452;2023-11-19T14:08:13;7.40;99.90
21805;DHT22;11064;47.102;15.452;2023-11-19T14:10:39;7.40;99.90
21805;DHT22;11064;47.102;15.452;2023-11-19T14:13:07;7.30;99.90
21805;DHT22;11064;47.102;15.452;2023-11-19T14:15:34;7.20;99.90
21805;DHT22;11064;47.102;15.452;2023-11-19T14:17:59;7.10;99.90
21805;DHT22;11064;47.102;15.452;2023-11-19T14:20:25;7.10;99.90
21805;DHT22;11064;47.102;15.452;2023-11-19T14:22:51;7.00;99.90
21805;DHT22;11064;47.102;15.452;2023-11-19T14:25:18;7.00;99.90
21805;DHT22;11064;47.102;15.452;2023-11-19T14:27:45;7.00;99.90
21805;DHT22;11064;47.102;15.452;2023-11-19T14:30:14;7.00;99.90
21805;DHT22;11064;47.102;15.452;2023-11-19T14:32:41;7.00;99.90
21805;DHT22;11064;47.102;15.452;2023-11-19T14:35:09;6.90;99.90
21805;DHT22;11064;47.102;15.452;2023-11-19T14:37:35;6.80;99.90
21805;DHT22;11064;47.102;15.452;2023-11-19T14:40:01;6.80;99.90
21805;DHT22;11064;47.102;15.452;2023-11-19T14:42:30;6.80;99.90
21805;DHT22;11064;47.102;15.452;2023-11-19T14:44:56;6.80;99.90
21805;DHT22;11064;47.102;15.452;2023-11-19T14:47:22;6.80;99.90
21805;DHT22;11064;47.102;15.452;2023-11-19T14:49:48;6.80;99.90
21805;DHT22;11064;47.102;15.452;2023-11-19T14:52:14;6.70;99.90
21805;DHT22;11064;47.102;15.452;2023-11-19T14:54:39;6.70;99.90
21805;DHT22;11064;47.102;15.452;2023-11-19T14:57:06;6.60;99.90
21805;DHT22;11064;47.102;15.452;2023-11-19T14:59:36;6.60;99.90
21805;DHT22;11064;47.102;15.452;2023-11-19T15:02:02;6.50;99.90
21805;DHT22;11064;47.102;15.452;2023-11-19T15:04:28;6.60;99.90
21805;DHT22;11064;47.102;15.452;2023-11-19T15:06:57;6.50;99.90
21805;DHT22;11064;47.102;15.452;2023-11-19T15:09:23;6.40;99.90
21805;DHT22;11064;47.102;15.452;2023-11-19T15:11:50;6.30;99.90
21805;DHT22;11064;47.102;15.452;2023-11-19T15:14:16;6.20;99.90
21805;DHT22;11064;47.102;15.452;2023-11-19T15:16:45;6.10;99.90
21805;DHT22;11064;47.102;15.452;2023-11-19T15:19:11;6.00;99.90
21805;DHT22;11064;47.102;15.452;2023-11-19T15:21:41;6.00;99.90
21805;DHT22;11064;47.102;15.452;2023-11-19T15:24:08;5.90;99.90
21805;DHT22;11064;47.102;15.452;2023-11-19T15:26:35;5.90;99.90
21805;DHT22;11064;47.102;15.452;2023-11-19T15:29:01;5.80;99.90
21805;DHT22;11064;47.102;15.452;2023-11-19T15:31:28;5.70;99.90
21805;DHT22;11064;47.102;15.452;2023-11-19T15:33:54;5.80;99.90
21805;DHT22;11064;47.102;15.452;2023-11-19T15:36:20;5.70;99.90
21805;DHT22;11064;47.102;15.452;2023-11-19T15:38:46;5.60;99.90
21805;DHT22;11064;47.102;15.452;2023-11-19T15:41:11;5.50;99.90
21805;DHT22;11064;47.102;15.452;2023-11-19T15:43:37;5.30;99.90
21805;DHT22;11064;47.102;15.452;2023-11-19T15:46:08;5.40;99.90
21805;DHT22;11064;47.102;15.452;2023-11-19T15:48:34;5.20;99.90
21805;DHT22;11064;47.102;15.452;2023-11-19T15:51:00;5.00;99.90
21805;DHT22;11064;47.102;15.452;2023-11-19T15:53:26;5.00;99.90
21805;DHT22;11064;47.102;15.452;2023-11-19T15:55:52;5.00;99.90
21805;DHT22;11064;47.102;15.452;2023-11-19T15:58:20;4.90;99.90
21805;DHT22;11064;47.102;15.452;2023-11-19T16:00:47;5.00;99.90
21805;DHT22;11064;47.102;15.452;2023-11-19T16:03:14;4.90;99.90
21805;DHT22;11064;47.102;15.452;2023-11-19T16:05:40;4.90;99.90
21805;DHT22;11064;47.102;15.452;2023-11-19T16:08:06;4.90;99.90
21805;DHT22;11064;47.102;15.452;2023-11-19T16:10:33;4.90;99.90
21805;DHT22;11064;47.102;15.452;2023-11-19T16:12:59;4.90;99.90
21805;DHT22;11064;47.102;15.452;2023-11-19T16:15:25;4.80;99.90
21805;DHT22;11064;47.102;15.452;2023-11-19T16:17:51;4.70;99.90
21805;DHT22;11064;47.102;15.452;2023-11-19T16:20:16;4.70;99.90
21805;DHT22;11064;47.102;15.452;2023-11-19T16:22:42;4.70;99.90
21805;DHT22;11064;47.102;15.452;2023-11-19T16:25:08;4.70;99.90
21805;DHT22;11064;47.102;15.452;2023-11-19T16:27:35;4.70;99.90
21805;DHT22;11064;47.102;15.452;2023-11-19T16:30:01;4.70;99.90
21805;DHT22;11064;47.102;15.452;2023-11-19T16:32:27;4.70;99.90
21805;DHT22;11064;47.102;15.452;2023-11-19T16:34:53;4.70;99.90
21805;DHT22;11064;47.102;15.452;2023-11-19T16:37:19;4.80;99.90
21805;DHT22;11064;47.102;15.452;2023-11-19T16:39:47;4.80;99.90
21805;DHT22;11064;47.102;15.452;2023-11-19T16:42:13;4.90;99.90
21805;DHT22;11064;47.102;15.452;2023-11-19T16:44:40;4.90;99.90
21805;DHT22;11064;47.102;15.452;2023-11-19T16:47:06;4.80;99.90
21805;DHT22;11064;47.102;15.452;2023-11-19T16:49:32;4.80;99.90
21805;DHT22;11064;47.102;15.452;2023-11-19T16:51:59;4.90;99.90
21805;DHT22;11064;47.102;15.452;2023-11-19T16:54:25;4.90;99.90
21805;DHT22;11064;47.102;15.452;2023-11-19T16:56:51;4.90;99.90
21805;DHT22;11064;47.102;15.452;2023-11-19T16:59:17;4.90;99.90
21805;DHT22;11064;47.102;15.452;2023-11-19T17:01:43;4.90;99.90
21805;DHT22;11064;47.102;15.452;2023-11-19T17:04:09;4.90;99.90
21805;DHT22;11064;47.102;15.452;2023-11-19T17:06:38;4.90;99.90
21805;DHT22;11064;47.102;15.452;2023-11-19T17:09:04;4.90;99.90
21805;DHT22;11064;47.102;15.452;2023-11-19T17:11:30;4.90;99.90
21805;DHT22;11064;47.102;15.452;2023-11-19T17:13:56;4.80;99.90
21805;DHT22;11064;47.102;15.452;2023-11-19T17:16:21;4.70;99.90
21805;DHT22;11064;47.102;15.452;2023-11-19T17:18:47;4.70;99.90
21805;DHT22;11064;47.102;15.452;2023-11-19T17:21:13;4.60;99.90
21805;DHT22;11064;47.102;15.452;2023-11-19T17:23:39;4.60;99.90
21805;DHT22;11064;47.102;15.452;2023-11-19T17:26:06;4.70;99.90
21805;DHT22;11064;47.102;15.452;2023-11-19T17:28:32;4.60;99.90
21805;DHT22;11064;47.102;15.452;2023-11-19T17:31:01;4.70;99.90
21805;DHT22;11064;47.102;15.452;2023-11-19T17:33:26;4.70;99.90
21805;DHT22;11064;47.102;15.452;2023-11-19T17:35:52;4.70;99.90
21805;DHT22;11064;47.102;15.452;2023-11-19T17:38:18;4.60;99.90
21805;DHT22;11064;47.102;15.452;2023-11-19T17:40:46;4.50;99.90
21805;DHT22;11064;47.102;15.452;2023-11-19T17:43:16;4.50;99.90
21805;DHT22;11064;47.102;15.452;2023-11-19T17:45:44;4.40;99.90
21805;DHT22;11064;47.102;15.452;2023-11-19T17:48:10;4.40;99.90
21805;DHT22;11064;47.102;15.452;2023-11-19T17:50:37;4.50;99.90
21805;DHT22;11064;47.102;15.452;2023-11-19T17:53:03;4.60;99.90
21805;DHT22;11064;47.102;15.452;2023-11-19T17:55:29;4.60;99.90
21805;DHT22;11064;47.102;15.452;2023-11-19T17:57:55;4.50;99.90
21805;DHT22;11064;47.102;15.452;2023-11-19T18:00:20;4.50;99.90
21805;DHT22;11064;47.102;15.452;2023-11-19T18:02:47;4.50;99.90
21805;DHT22;11064;47.102;15.452;2023-11-19T18:05:14;4.40;99.90
21805;DHT22;11064;47.102;15.452;2023-11-19T18:07:41;4.40;99.90
21805;DHT22;11064;47.102;15.452;2023-11-19T18:10:08;4.40;99.90
21805;DHT22;11064;47.102;15.452;2023-11-19T18:12:34;4.30;99.90
21805;DHT22;11064;47.102;15.452;2023-11-19T18:15:10;4.40;99.90
21805;DHT22;11064;47.102;15.452;2023-11-19T18:17:40;4.40;99.90
21805;DHT22;11064;47.102;15.452;2023-11-19T18:20:12;4.50;99.90
21805;DHT22;11064;47.102;15.452;2023-11-19T18:22:40;4.50;99.90
21805;DHT22;11064;47.102;15.452;2023-11-19T18:25:07;4.40;99.90
21805;DHT22;11064;47.102;15.452;2023-11-19T18:27:37;4.40;99.90
21805;DHT22;11064;47.102;15.452;2023-11-19T18:30:06;4.40;99.90
21805;DHT22;11064;47.102;15.452;2023-11-19T18:32:33;4.40;99.90
21805;DHT22;11064;47.102;15.452;2023-11-19T18:35:00;4.40;99.90
21805;DHT22;11064;47.102;15.452;2023-11-19T18:37:27;4.30;99.90
21805;DHT22;11064;47.102;15.452;2023-11-19T18:39:54;4.30;99.90
21805;DHT22;11064;47.102;15.452;2023-11-19T18:42:21;4.20;99.90
21805;DHT22;11064;47.102;15.452;2023-11-19T18:44:48;4.20;99.90
21805;DHT22;11064;47.102;15.452;2023-11-19T18:47:15;4.20;99.90
21805;DHT22;11064;47.102;15.452;2023-11-19T18:49:42;4.00;99.90
21805;DHT22;11064;47.102;15.452;2023-11-19T18:52:08;3.90;99.90
21805;DHT22;11064;47.102;15.452;2023-11-19T18:54:35;3.90;99.90
21805;DHT22;11064;47.102;15.452;2023-11-19T18:57:02;3.80;99.90
21805;DHT22;11064;47.102;15.452;2023-11-19T18:59:30;3.80;99.90
21805;DHT22;11064;47.102;15.452;2023-11-19T19:01:57;3.80;99.90
21805;DHT22;11064;47.102;15.452;2023-11-19T19:04:24;3.90;99.90
21805;DHT22;11064;47.102;15.452;2023-11-19T19:06:53;3.80;99.90
21805;DHT22;11064;47.102;15.452;2023-11-19T19:09:19;3.80;99.90
21805;DHT22;11064;47.102;15.452;2023-11-19T19:11:48;3.70;99.90
21805;DHT22;11064;47.102;15.452;2023-11-19T19:14:15;3.60;99.90
21805;DHT22;11064;47.102;15.452;2023-11-19T19:16:42;3.60;99.90
21805;DHT22;11064;47.102;15.452;2023-11-19T19:19:09;3.50;99.90
21805;DHT22;11064;47.102;15.452;2023-11-19T19:21:35;3.50;99.90
21805;DHT22;11064;47.102;15.452;2023-11-19T19:24:02;3.50;99.90
21805;DHT22;11064;47.102;15.452;2023-11-19T19:26:31;3.50;99.90
21805;DHT22;11064;47.102;15.452;2023-11-19T19:28:58;3.50;99.90
21805;DHT22;11064;47.102;15.452;2023-11-19T19:31:25;3.50;99.90
21805;DHT22;11064;47.102;15.452;2023-11-19T19:33:51;3.50;99.90
21805;DHT22;11064;47.102;15.452;2023-11-19T19:36:27;3.60;99.90
21805;DHT22;11064;47.102;15.452;2023-11-19T19:38:58;3.60;99.90
21805;DHT22;11064;47.102;15.452;2023-11-19T19:41:29;3.60;99.90
21805;DHT22;11064;47.102;15.452;2023-11-19T19:43:55;3.70;99.90
21805;DHT22;11064;47.102;15.452;2023-11-19T19:46:21;3.70;99.90
21805;DHT22;11064;47.102;15.452;2023-11-19T19:48:47;3.70;99.90
21805;DHT22;11064;47.102;15.452;2023-11-19T19:51:13;3.60;99.90
21805;DHT22;11064;47.102;15.452;2023-11-19T19:53:39;3.70;99.90
21805;DHT22;11064;47.102;15.452;2023-11-19T19:56:07;3.70;99.90
21805;DHT22;11064;47.102;15.452;2023-11-19T19:58:34;3.70;99.90
21805;DHT22;11064;47.102;15.452;2023-11-19T20:01:00;3.70;99.90
21805;DHT22;11064;47.102;15.452;2023-11-19T20:03:28;3.70;99.90
21805;DHT22;11064;47.102;15.452;2023-11-19T20:05:58;3.70;99.90
21805;DHT22;11064;47.102;15.452;2023-11-19T20:08:24;3.70;99.90
21805;DHT22;11064;47.102;15.452;2023-11-19T20:10:50;3.80;99.90
21805;DHT22;11064;47.102;15.452;2023-11-19T20:13:16;3.70;99.90
21805;DHT22;11064;47.102;15.452;2023-11-19T20:15:41;3.70;99.90
21805;DHT22;11064;47.102;15.452;2023-11-19T20:18:08;3.70;99.90
21805;DHT22;11064;47.102;15.452;2023-11-19T20:20:36;3.70;99.90
21805;DHT22;11064;47.102;15.452;2023-11-19T20:23:04;3.80;99.90
21805;DHT22;11064;47.102;15.452;2023-11-19T20:25:31;3.80;99.90
21805;DHT22;11064;47.102;15.452;2023-11-19T20:27:57;3.80;99.90
21805;DHT22;11064;47.102;15.452;2023-11-19T20:30:23;3.80;99.90
21805;DHT22;11064;47.102;15.452;2023-11-19T20:32:49;3.70;99.90
21805;DHT22;11064;47.102;15.452;2023-11-19T20:35:14;3.70;99.90
21805;DHT22;11064;47.102;15.452;2023-11-19T20:37:40;3.50;99.90
21805;DHT22;11064;47.102;15.452;2023-11-19T20:40:07;3.40;99.90
21805;DHT22;11064;47.102;15.452;2023-11-19T20:42:35;3.40;99.90
21805;DHT22;11064;47.102;15.452;2023-11-19T20:45:02;3.40;99.90
21805;DHT22;11064;47.102;15.452;2023-11-19T20:47:29;3.40;99.90
21805;DHT22;11064;47.102;15.452;2023-11-19T20:49:55;3.50;99.90
21805;DHT22;11064;47.102;15.452;2023-11-19T20:52:21;3.50;99.90
21805;DHT22;11064;47.102;15.452;2023-11-19T20:54:48;3.60;99.90
21805;DHT22;11064;47.102;15.452;2023-11-19T20:57:14;3.60;99.90
21805;DHT22;11064;47.102;15.452;2023-11-19T20:59:39;3.70;99.90
21805;DHT22;11064;47.102;15.452;2023-11-19T21:02:06;3.70;99.90
21805;DHT22;11064;47.102;15.452;2023-11-19T21:04:32;3.70;99.90
21805;DHT22;11064;47.102;15.452;2023-11-19T21:06:58;3.80;99.90
21805;DHT22;11064;47.102;15.452;2023-11-19T21:09:24;3.80;99.90
21805;DHT22;11064;47.102;15.452;2023-11-19T21:11:49;4.00;99.90
21805;DHT22;11064;47.102;15.452;2023-11-19T21:14:16;4.00;99.90
21805;DHT22;11064;47.102;15.452;2023-11-19T21:16:43;3.90;99.90
21805;DHT22;11064;47.102;15.452;2023-11-19T21:19:09;3.90;99.90
21805;DHT22;11064;47.102;15.452;2023-11-19T21:21:35;3.80;99.90
21805;DHT22;11064;47.102;15.452;2023-11-19T21:24:01;3.90;99.90
21805;DHT22;11064;47.102;15.452;2023-11-19T21:26:27;4.00;99.90
21805;DHT22;11064;47.102;15.452;2023-11-19T21:28:53;4.00;99.90
21805;DHT22;11064;47.102;15.452;2023-11-19T21:31:19;4.00;99.90
21805;DHT22;11064;47.102;15.452;2023-11-19T21:33:45;4.00;99.90
21805;DHT22;11064;47.102;15.452;2023-11-19T21:36:11;4.00;99.90
21805;DHT22;11064;47.102;15.452;2023-11-19T21:38:37;4.00;99.90
21805;DHT22;11064;47.102;15.452;2023-11-19T21:41:03;3.90;99.90
21805;DHT22;11064;47.102;15.452;2023-11-19T21:43:30;3.80;99.90
21805;DHT22;11064;47.102;15.452;2023-11-19T21:45:55;3.70;99.90